Time,TemperatureF,DewpointF,PressureIn,WindDirection,WindDirectionDegrees,WindSpeedMPH,WindSpeedGustMPH,Humidity,HourlyPrecipIn,Conditions,Clouds,dailyrainin,SoftwareType,DateUTC
2013-08-25 00:01:00,79.2,71.0,29.84,SE,135,10.9,-999.0,76,-99.99,,,0.00,Acu-Link.com,2013-08-25 05:01:00,
2013-08-25 00:16:00,79.0,70.8,29.84,SSE,157,9.4,-999.0,76,-99.99,,,0.00,Acu-Link.com,2013-08-25 05:16:00,
2013-08-25 00:31:00,78.8,70.6,29.85,SSE,157,13.5,-999.0,76,-99.99,,,0.00,Acu-Link.com,2013-08-25 05:31:00,
2013-08-25 00:46:00,78.6,70.8,29.85,South,180,9.9,-999.0,77,-99.99,,,0.00,Acu-Link.com,2013-08-25 05:46:00,
2013-08-25 01:01:00,78.3,70.5,29.85,South,180,11.4,-999.0,77,-99.99,,,0.00,Acu-Link.com,2013-08-25 06:01:00,
2013-08-25 01:16:00,77.7,70.3,29.85,South,180,9.9,-999.0,78,-99.99,,,0.00,Acu-Link.com,2013-08-25 06:16:00,
2013-08-25 01:31:00,77.5,70.1,29.85,SSE,157,10.9,-999.0,78,-99.99,,,0.00,Acu-Link.com,2013-08-25 06:31:00,
2013-08-25 01:47:00,77.2,69.8,29.86,SSW,202,7.8,-999.0,78,-99.99,,,0.00,Acu-Link.com,2013-08-25 06:47:00,
2013-08-25 02:02:00,76.8,69.8,29.86,SW,225,10.4,-999.0,79,-99.99,,,0.00,Acu-Link.com,2013-08-25 07:02:00,
2013-08-25 02:17:00,76.6,69.6,29.86,ESE,112,8.3,-999.0,79,-99.99,,,0.00,Acu-Link.com,2013-08-25 07:17:00,
2013-08-25 02:32:00,76.3,69.7,29.86,South,180,9.9,-999.0,80,-99.99,,,0.00,Acu-Link.com,2013-08-25 07:32:00,
2013-08-25 02:47:00,76.1,69.5,29.86,SE,135,9.4,-999.0,80,-99.99,,,0.00,Acu-Link.com,2013-08-25 07:47:00,
2013-08-25 03:02:00,75.6,69.3,29.87,SSE,157,7.8,-999.0,81,-99.99,,,0.00,Acu-Link.com,2013-08-25 08:02:00,
2013-08-25 03:18:00,75.6,69.3,29.87,South,180,11.9,-999.0,81,-99.99,,,0.00,Acu-Link.com,2013-08-25 08:18:00,
2013-08-25 03:33:00,75.6,69.3,29.87,SSE,157,10.4,-999.0,81,-99.99,,,0.00,Acu-Link.com,2013-08-25 08:33:00,
2013-08-25 03:49:00,75.4,69.2,29.87,SSE,157,6.8,-999.0,81,-99.99,,,0.00,Acu-Link.com,2013-08-25 08:49:00,
2013-08-25 04:04:00,75.4,69.2,29.87,SSW,202,8.9,-999.0,81,-99.99,,,0.00,Acu-Link.com,2013-08-25 09:04:00,
2013-08-25 04:19:00,75.0,68.8,29.88,SSE,157,7.3,-999.0,81,-99.99,,,0.00,Acu-Link.com,2013-08-25 09:19:00,
2013-08-25 04:34:00,74.5,68.6,29.87,SSE,157,9.9,-999.0,82,-99.99,,,0.00,Acu-Link.com,2013-08-25 09:34:00,
2013-08-25 04:49:00,74.1,68.6,29.88,South,180,4.2,-999.0,83,-99.99,,,0.00,Acu-Link.com,2013-08-25 09:49:00,
2013-08-25 05:04:00,73.8,68.7,29.88,SSW,202,8.3,-999.0,84,-99.99,,,0.00,Acu-Link.com,2013-08-25 10:04:00,
2013-08-25 05:19:00,73.6,68.5,29.87,SSE,157,6.3,-999.0,84,-99.99,,,0.00,Acu-Link.com,2013-08-25 10:19:00,
2013-08-25 05:35:00,73.4,68.3,29.87,South,180,7.3,-999.0,84,-99.99,,,0.00,Acu-Link.com,2013-08-25 10:35:00,
2013-08-25 05:50:00,73.2,68.1,29.87,SE,135,8.9,-999.0,84,-99.99,,,0.00,Acu-Link.com,2013-08-25 10:50:00,
2013-08-25 06:05:00,73.0,68.2,29.87,SSE,157,10.9,-999.0,85,-99.99,,,0.00,Acu-Link.com,2013-08-25 11:05:00,
2013-08-25 06:20:00,72.9,68.1,29.88,SSE,157,6.8,-999.0,85,-99.99,,,0.00,Acu-Link.com,2013-08-25 11:20:00,
2013-08-25 06:35:00,72.9,68.1,29.87,South,180,5.8,-999.0,85,-99.99,,,0.00,Acu-Link.com,2013-08-25 11:35:00,
2013-08-25 06:50:00,72.9,68.1,29.88,East,90,9.4,-999.0,85,-99.99,,,0.00,Acu-Link.com,2013-08-25 11:50:00,
2013-08-25 07:05:00,73.0,68.2,29.88,SSE,157,7.3,-999.0,85,-99.99,,,0.00,Acu-Link.com,2013-08-25 12:05:00,
2013-08-25 07:20:00,73.2,68.4,29.89,SSE,157,9.4,-999.0,85,-99.99,,,0.00,Acu-Link.com,2013-08-25 12:20:00,
2013-08-25 07:35:00,73.8,68.7,29.88,SSE,157,10.9,-999.0,84,-99.99,,,0.00,Acu-Link.com,2013-08-25 12:35:00,
2013-08-25 07:50:00,74.3,68.8,29.88,South,180,5.8,-999.0,83,-99.99,,,0.00,Acu-Link.com,2013-08-25 12:50:00,
2013-08-25 08:05:00,75.0,69.1,29.88,SSW,202,8.9,-999.0,82,-99.99,,,0.00,Acu-Link.com,2013-08-25 13:05:00,
2013-08-25 08:20:00,75.9,69.6,29.87,South,180,7.8,-999.0,81,-99.99,,,0.00,Acu-Link.com,2013-08-25 13:20:00,
2013-08-25 08:35:00,77.4,70.4,29.88,SSE,157,10.4,-999.0,79,-99.99,,,0.00,Acu-Link.com,2013-08-25 13:35:00,
2013-08-25 08:51:00,78.3,70.5,29.88,South,180,9.4,-999.0,77,-99.99,,,0.00,Acu-Link.com,2013-08-25 13:51:00,
2013-08-25 09:06:00,79.0,71.2,29.87,SE,135,14.5,-999.0,77,-99.99,,,0.00,Acu-Link.com,2013-08-25 14:06:00,
2013-08-25 09:21:00,79.9,71.6,29.87,South,180,9.9,-999.0,76,-99.99,,,0.00,Acu-Link.com,2013-08-25 14:21:00,
2013-08-25 09:36:00,80.4,71.7,29.88,SE,135,11.4,-999.0,75,-99.99,,,0.00,Acu-Link.com,2013-08-25 14:36:00,
2013-08-25 09:51:00,81.5,72.0,29.88,SSE,157,9.9,-999.0,73,-99.99,,,0.00,Acu-Link.com,2013-08-25 14:51:00,
2013-08-25 10:06:00,81.7,72.2,29.88,SSE,157,9.9,-999.0,73,-99.99,,,0.00,Acu-Link.com,2013-08-25 15:06:00,
2013-08-25 10:21:00,82.0,72.1,29.87,SSW,202,14.5,-999.0,72,-99.99,,,0.00,Acu-Link.com,2013-08-25 15:21:00,
2013-08-25 10:36:00,83.1,72.7,29.87,SSE,157,9.4,-999.0,71,-99.99,,,0.00,Acu-Link.com,2013-08-25 15:36:00,
2013-08-25 10:51:00,83.5,72.7,29.88,SW,225,15.0,-999.0,70,-99.99,,,0.00,Acu-Link.com,2013-08-25 15:51:00,
2013-08-25 11:06:00,84.4,73.5,29.88,SSW,202,7.8,-999.0,70,-99.99,,,0.00,Acu-Link.com,2013-08-25 16:06:00,
2013-08-25 11:21:00,84.9,73.1,29.88,SE,135,15.0,-999.0,68,-99.99,,,0.00,Acu-Link.com,2013-08-25 16:21:00,
2013-08-25 11:37:00,84.9,73.1,29.88,South,180,9.9,-999.0,68,-99.99,,,0.00,Acu-Link.com,2013-08-25 16:37:00,
2013-08-25 11:52:00,85.3,73.1,29.87,South,180,14.0,-999.0,67,-99.99,,,0.00,Acu-Link.com,2013-08-25 16:52:00,
2013-08-25 12:07:00,86.5,73.8,29.87,SW,225,13.5,-999.0,66,-99.99,,,0.00,Acu-Link.com,2013-08-25 17:07:00,
2013-08-25 12:22:00,87.3,74.5,29.87,SSW,202,8.9,-999.0,66,-99.99,,,0.00,Acu-Link.com,2013-08-25 17:22:00,
2013-08-25 12:37:00,87.6,74.3,29.87,SSE,157,14.5,-999.0,65,-99.99,,,0.00,Acu-Link.com,2013-08-25 17:37:00,
2013-08-25 12:52:00,87.8,74.5,29.87,WSW,247,10.4,-999.0,65,-99.99,,,0.00,Acu-Link.com,2013-08-25 17:52:00,
2013-08-25 13:08:00,87.1,74.3,29.86,South,180,13.5,-999.0,66,-99.99,,,0.00,Acu-Link.com,2013-08-25 18:08:00,
2013-08-25 13:23:00,87.8,74.5,29.85,West,270,15.0,-999.0,65,-99.99,,,0.00,Acu-Link.com,2013-08-25 18:23:00,
2013-08-25 13:38:00,89.2,74.9,29.85,SSW,202,10.9,-999.0,63,-99.99,,,0.00,Acu-Link.com,2013-08-25 18:38:00,
2013-08-25 13:53:00,88.5,74.7,29.86,South,180,8.9,-999.0,64,-99.99,,,0.00,Acu-Link.com,2013-08-25 18:53:00,
2013-08-25 14:08:00,89.4,75.1,29.85,SSE,157,13.0,-999.0,63,-99.99,,,0.00,Acu-Link.com,2013-08-25 19:08:00,
2013-08-25 14:23:00,90.5,75.2,29.85,SSW,202,17.6,-999.0,61,-99.99,,,0.00,Acu-Link.com,2013-08-25 19:23:00,
2013-08-25 14:38:00,90.0,75.2,29.85,West,270,13.5,-999.0,62,-99.99,,,0.00,Acu-Link.com,2013-08-25 19:38:00,
2013-08-25 14:54:00,89.6,75.3,29.85,South,180,14.5,-999.0,63,-99.99,,,0.00,Acu-Link.com,2013-08-25 19:54:00,
2013-08-25 15:09:00,91.0,76.6,29.84,SW,225,9.9,-999.0,63,-99.99,,,0.00,Acu-Link.com,2013-08-25 20:09:00,
2013-08-25 15:24:00,90.0,75.7,29.84,SSW,202,8.9,-999.0,63,-99.99,,,0.00,Acu-Link.com,2013-08-25 20:24:00,
2013-08-25 15:39:00,91.4,77.5,29.84,SSE,157,10.9,-999.0,64,-99.99,,,0.00,Acu-Link.com,2013-08-25 20:39:00,
2013-08-25 15:54:00,90.1,76.2,29.84,South,180,11.4,-999.0,64,-99.99,,,0.00,Acu-Link.com,2013-08-25 20:54:00,
2013-08-25 16:09:00,90.7,76.8,29.84,SSW,202,8.3,-999.0,64,-99.99,,,0.00,Acu-Link.com,2013-08-25 21:09:00,
2013-08-25 16:24:00,90.5,76.6,29.84,SSW,202,13.5,-999.0,64,-99.99,,,0.00,Acu-Link.com,2013-08-25 21:24:00,
2013-08-25 16:39:00,90.3,76.9,29.84,South,180,14.0,-999.0,65,-99.99,,,0.00,Acu-Link.com,2013-08-25 21:39:00,
2013-08-25 16:54:00,91.2,77.3,29.84,SSW,202,10.4,-999.0,64,-99.99,,,0.00,Acu-Link.com,2013-08-25 21:54:00,
2013-08-25 17:09:00,90.5,76.6,29.84,SSW,202,9.9,-999.0,64,-99.99,,,0.00,Acu-Link.com,2013-08-25 22:09:00,
2013-08-25 17:24:00,90.5,77.6,29.84,South,180,11.4,-999.0,66,-99.99,,,0.00,Acu-Link.com,2013-08-25 22:24:00,
2013-08-25 17:39:00,90.1,76.7,29.84,South,180,9.9,-999.0,65,-99.99,,,0.00,Acu-Link.com,2013-08-25 22:39:00,
2013-08-25 17:54:00,89.6,76.7,29.83,South,180,9.4,-999.0,66,-99.99,,,0.00,Acu-Link.com,2013-08-25 22:54:00,
2013-08-25 18:09:00,89.2,77.7,29.83,South,180,11.9,-999.0,69,-99.99,,,0.00,Acu-Link.com,2013-08-25 23:09:00,
2013-08-25 18:24:00,89.1,77.1,29.84,South,180,7.8,-999.0,68,-99.99,,,0.00,Acu-Link.com,2013-08-25 23:24:00,
2013-08-25 18:39:00,89.1,77.6,29.84,SSE,157,4.7,-999.0,69,-99.99,,,0.00,Acu-Link.com,2013-08-25 23:39:00,
2013-08-25 18:54:00,88.2,77.1,29.83,SSE,157,8.9,-999.0,70,-99.99,,,0.00,Acu-Link.com,2013-08-25 23:54:00,
2013-08-25 19:09:00,86.7,76.6,29.83,SE,135,6.8,-999.0,72,-99.99,,,0.00,Acu-Link.com,2013-08-26 00:09:00,
2013-08-25 19:24:00,86.2,76.5,29.83,ESE,112,6.8,-999.0,73,-99.99,,,0.00,Acu-Link.com,2013-08-26 00:24:00,
2013-08-25 19:39:00,85.5,75.8,29.84,SSE,157,5.3,-999.0,73,-99.99,,,0.00,Acu-Link.com,2013-08-26 00:39:00,
2013-08-25 19:54:00,84.0,75.6,29.85,SSE,157,4.2,-999.0,76,-99.99,,,0.00,Acu-Link.com,2013-08-26 00:54:00,
2013-08-25 20:09:00,83.1,75.1,29.84,SW,225,5.3,-999.0,77,-99.99,,,0.00,Acu-Link.com,2013-08-26 01:09:00,
2013-08-25 20:25:00,82.2,75.0,29.85,SSE,157,5.3,-999.0,79,-99.99,,,0.00,Acu-Link.com,2013-08-26 01:25:00,
2013-08-25 20:40:00,81.5,74.7,29.85,SSE,157,4.7,-999.0,80,-99.99,,,0.00,Acu-Link.com,2013-08-26 01:40:00,
2013-08-25 20:55:00,81.1,74.3,29.86,SE,135,5.8,-999.0,80,-99.99,,,0.00,Acu-Link.com,2013-08-26 01:55:00,
2013-08-25 21:10:00,81.3,74.5,29.87,ESE,112,6.8,-999.0,80,-99.99,,,0.00,Acu-Link.com,2013-08-26 02:10:00,
2013-08-25 21:26:00,81.0,73.9,29.87,SSE,157,6.8,-999.0,79,-99.99,,,0.00,Acu-Link.com,2013-08-26 02:26:00,
2013-08-25 21:41:00,80.4,73.3,29.87,South,180,4.2,-999.0,79,-99.99,,,0.00,Acu-Link.com,2013-08-26 02:41:00,
2013-08-25 21:56:00,80.1,73.4,29.88,SSW,202,5.3,-999.0,80,-99.99,,,0.00,Acu-Link.com,2013-08-26 02:56:00,
2013-08-25 22:11:00,79.7,73.0,29.88,South,180,5.3,-999.0,80,-99.99,,,0.00,Acu-Link.com,2013-08-26 03:11:00,
2013-08-25 22:26:00,79.7,73.0,29.87,SSE,157,6.8,-999.0,80,-99.99,,,0.00,Acu-Link.com,2013-08-26 03:26:00,
2013-08-25 22:42:00,79.2,72.5,29.88,SSW,202,5.3,-999.0,80,-99.99,,,0.00,Acu-Link.com,2013-08-26 03:42:00,
2013-08-25 22:57:00,78.6,72.3,29.88,South,180,3.7,-999.0,81,-99.99,,,0.00,Acu-Link.com,2013-08-26 03:57:00,
2013-08-25 23:12:00,78.1,72.1,29.89,SSW,202,5.8,-999.0,82,-99.99,,,0.00,Acu-Link.com,2013-08-26 04:12:00,
2013-08-25 23:27:00,78.4,72.1,29.88,South,180,7.3,-999.0,81,-99.99,,,0.00,Acu-Link.com,2013-08-26 04:27:00,
2013-08-25 23:42:00,79.0,72.3,29.89,SE,135,6.3,-999.0,80,-99.99,,,0.00,Acu-Link.com,2013-08-26 04:42:00,
2013-08-25 23:57:00,79.2,72.1,29.89,SSE,157,5.8,-999.0,79,-99.99,,,0.00,Acu-Link.com,2013-08-26 04:57:00,